sensor_id;sensor_type;location;lat;lon;timestamp;P1;durP1;ratioP1;P2;durP2;ratioP2
77586;SDS011;66744;49.716;17.158;2023-07-02T00:01:28;8.57;;;5.30;;
77586;SDS011;66744;49.716;17.158;2023-07-02T00:04:30;7.93;;;5.22;;
77586;SDS011;66744;49.716;17.158;2023-07-02T00:07:31;9.20;;;5.18;;
77586;SDS011;66744;49.716;17.158;2023-07-02T00:10:39;8.93;;;5.57;;
77586;SDS011;66744;49.716;17.158;2023-07-02T00:13:40;8.80;;;5.95;;
77586;SDS011;66744;49.716;17.158;2023-07-02T00:16:47;9.13;;;5.65;;
77586;SDS011;66744;49.716;17.158;2023-07-02T00:19:51;7.18;;;4.90;;
77586;SDS011;66744;49.716;17.158;2023-07-02T00:23:24;6.32;;;5.22;;
77586;SDS011;66744;49.716;17.158;2023-07-02T00:26:28;6.82;;;4.88;;
77586;SDS011;66744;49.716;17.158;2023-07-02T00:29:30;7.30;;;5.28;;
77586;SDS011;66744;49.716;17.158;2023-07-02T00:32:54;6.28;;;5.03;;
77586;SDS011;66744;49.716;17.158;2023-07-02T00:35:57;6.35;;;5.03;;
77586;SDS011;66744;49.716;17.158;2023-07-02T00:39:01;7.28;;;5.15;;
77586;SDS011;66744;49.716;17.158;2023-07-02T00:42:03;6.35;;;5.00;;
77586;SDS011;66744;49.716;17.158;2023-07-02T00:45:05;7.45;;;5.10;;
77586;SDS011;66744;49.716;17.158;2023-07-02T00:48:08;8.38;;;5.43;;
77586;SDS011;66744;49.716;17.158;2023-07-02T00:51:20;8.68;;;5.43;;
77586;SDS011;66744;49.716;17.158;2023-07-02T00:54:28;9.40;;;5.60;;
77586;SDS011;66744;49.716;17.158;2023-07-02T00:57:30;7.53;;;5.25;;
77586;SDS011;66744;49.716;17.158;2023-07-02T01:00:33;8.70;;;4.43;;
77586;SDS011;66744;49.716;17.158;2023-07-02T01:03:34;6.65;;;5.28;;
77586;SDS011;66744;49.716;17.158;2023-07-02T01:06:38;8.05;;;5.18;;
77586;SDS011;66744;49.716;17.158;2023-07-02T01:09:42;9.25;;;5.28;;
77586;SDS011;66744;49.716;17.158;2023-07-02T01:12:43;10.38;;;5.15;;
77586;SDS011;66744;49.716;17.158;2023-07-02T01:15:49;7.50;;;5.18;;
77586;SDS011;66744;49.716;17.158;2023-07-02T01:19:02;8.43;;;4.80;;
77586;SDS011;66744;49.716;17.158;2023-07-02T01:22:11;10.27;;;5.85;;
77586;SDS011;66744;49.716;17.158;2023-07-02T01:25:14;7.65;;;5.68;;
77586;SDS011;66744;49.716;17.158;2023-07-02T01:28:17;6.28;;;4.97;;
77586;SDS011;66744;49.716;17.158;2023-07-02T01:31:40;8.85;;;5.85;;
77586;SDS011;66744;49.716;17.158;2023-07-02T01:34:50;7.75;;;5.78;;
77586;SDS011;66744;49.716;17.158;2023-07-02T01:41:51;8.25;;;5.05;;
77586;SDS011;66744;49.716;17.158;2023-07-02T01:44:57;11.05;;;6.22;;
77586;SDS011;66744;49.716;17.158;2023-07-02T01:47:59;13.27;;;5.88;;
77586;SDS011;66744;49.716;17.158;2023-07-02T01:51:00;10.90;;;6.15;;
77586;SDS011;66744;49.716;17.158;2023-07-02T01:54:02;9.05;;;5.63;;
77586;SDS011;66744;49.716;17.158;2023-07-02T01:57:04;9.50;;;6.13;;
77586;SDS011;66744;49.716;17.158;2023-07-02T02:00:06;7.95;;;6.28;;
77586;SDS011;66744;49.716;17.158;2023-07-02T02:03:18;8.82;;;6.20;;
77586;SDS011;66744;49.716;17.158;2023-07-02T02:06:25;9.15;;;6.78;;
77586;SDS011;66744;49.716;17.158;2023-07-02T02:09:27;9.23;;;6.03;;
77586;SDS011;66744;49.716;17.158;2023-07-02T02:12:32;9.10;;;6.35;;
77586;SDS011;66744;49.716;17.158;2023-07-02T02:15:34;8.52;;;5.63;;
77586;SDS011;66744;49.716;17.158;2023-07-02T02:18:38;11.30;;;7.05;;
77586;SDS011;66744;49.716;17.158;2023-07-02T02:21:40;9.02;;;5.50;;
77586;SDS011;66744;49.716;17.158;2023-07-02T02:24:42;9.55;;;6.10;;
77586;SDS011;66744;49.716;17.158;2023-07-02T02:27:44;12.00;;;6.70;;
77586;SDS011;66744;49.716;17.158;2023-07-02T02:30:47;8.73;;;5.53;;
77586;SDS011;66744;49.716;17.158;2023-07-02T02:33:49;15.25;;;6.38;;
77586;SDS011;66744;49.716;17.158;2023-07-02T02:36:51;14.15;;;5.68;;
77586;SDS011;66744;49.716;17.158;2023-07-02T02:39:52;12.80;;;6.30;;
77586;SDS011;66744;49.716;17.158;2023-07-02T02:42:55;10.80;;;6.15;;
77586;SDS011;66744;49.716;17.158;2023-07-02T02:46:03;10.00;;;5.70;;
77586;SDS011;66744;49.716;17.158;2023-07-02T02:49:13;9.60;;;5.53;;
77586;SDS011;66744;49.716;17.158;2023-07-02T02:52:20;11.48;;;6.72;;
77586;SDS011;66744;49.716;17.158;2023-07-02T02:55:22;7.55;;;6.03;;
77586;SDS011;66744;49.716;17.158;2023-07-02T02:58:24;9.85;;;6.10;;
77586;SDS011;66744;49.716;17.158;2023-07-02T03:01:25;19.17;;;6.03;;
77586;SDS011;66744;49.716;17.158;2023-07-02T03:08:58;8.77;;;6.22;;
77586;SDS011;66744;49.716;17.158;2023-07-02T03:11:59;14.13;;;5.85;;
77586;SDS011;66744;49.716;17.158;2023-07-02T03:15:01;11.10;;;6.22;;
77586;SDS011;66744;49.716;17.158;2023-07-02T03:18:04;10.50;;;6.78;;
77586;SDS011;66744;49.716;17.158;2023-07-02T03:21:12;8.90;;;7.18;;
77586;SDS011;66744;49.716;17.158;2023-07-02T03:24:14;8.50;;;6.03;;
77586;SDS011;66744;49.716;17.158;2023-07-02T03:27:16;10.10;;;6.50;;
77586;SDS011;66744;49.716;17.158;2023-07-02T03:30:18;8.82;;;6.20;;
77586;SDS011;66744;49.716;17.158;2023-07-02T03:33:20;10.73;;;5.63;;
77586;SDS011;66744;49.716;17.158;2023-07-02T03:36:21;10.70;;;7.28;;
77586;SDS011;66744;49.716;17.158;2023-07-02T03:39:23;12.25;;;7.03;;
77586;SDS011;66744;49.716;17.158;2023-07-02T03:42:24;10.15;;;5.85;;
77586;SDS011;66744;49.716;17.158;2023-07-02T03:45:27;13.40;;;7.43;;
77586;SDS011;66744;49.716;17.158;2023-07-02T03:48:32;10.48;;;6.80;;
77586;SDS011;66744;49.716;17.158;2023-07-02T03:51:33;9.57;;;6.78;;
77586;SDS011;66744;49.716;17.158;2023-07-02T03:54:35;12.15;;;7.13;;
77586;SDS011;66744;49.716;17.158;2023-07-02T03:57:36;10.38;;;7.53;;
77586;SDS011;66744;49.716;17.158;2023-07-02T04:00:38;11.48;;;7.18;;
77586;SDS011;66744;49.716;17.158;2023-07-02T04:03:42;9.88;;;7.53;;
77586;SDS011;66744;49.716;17.158;2023-07-02T04:06:48;9.75;;;7.50;;
77586;SDS011;66744;49.716;17.158;2023-07-02T04:09:50;9.52;;;7.00;;
77586;SDS011;66744;49.716;17.158;2023-07-02T04:12:52;10.00;;;7.18;;
77586;SDS011;66744;49.716;17.158;2023-07-02T04:15:54;10.40;;;7.47;;
77586;SDS011;66744;49.716;17.158;2023-07-02T04:18:55;10.07;;;7.22;;
77586;SDS011;66744;49.716;17.158;2023-07-02T04:21:57;10.98;;;6.97;;
77586;SDS011;66744;49.716;17.158;2023-07-02T04:25:08;11.57;;;7.40;;
77586;SDS011;66744;49.716;17.158;2023-07-02T04:28:20;14.13;;;7.22;;
77586;SDS011;66744;49.716;17.158;2023-07-02T04:31:22;10.23;;;7.68;;
77586;SDS011;66744;49.716;17.158;2023-07-02T04:34:26;10.95;;;7.85;;
77586;SDS011;66744;49.716;17.158;2023-07-02T04:37:28;10.55;;;7.60;;
77586;SDS011;66744;49.716;17.158;2023-07-02T04:40:29;12.50;;;7.25;;
77586;SDS011;66744;49.716;17.158;2023-07-02T04:43:31;8.25;;;7.03;;
77586;SDS011;66744;49.716;17.158;2023-07-02T04:46:34;9.82;;;7.38;;
77586;SDS011;66744;49.716;17.158;2023-07-02T04:49:35;12.00;;;7.00;;
77586;SDS011;66744;49.716;17.158;2023-07-02T04:52:37;12.27;;;7.93;;
77586;SDS011;66744;49.716;17.158;2023-07-02T04:55:39;13.73;;;6.88;;
77586;SDS011;66744;49.716;17.158;2023-07-02T04:58:41;11.00;;;6.95;;
77586;SDS011;66744;49.716;17.158;2023-07-02T05:01:43;8.70;;;6.85;;
77586;SDS011;66744;49.716;17.158;2023-07-02T05:04:45;9.48;;;7.50;;
77586;SDS011;66744;49.716;17.158;2023-07-02T05:07:46;9.40;;;7.35;;
77586;SDS011;66744;49.716;17.158;2023-07-02T05:10:48;10.38;;;7.50;;
77586;SDS011;66744;49.716;17.158;2023-07-02T05:13:55;10.18;;;7.07;;
77586;SDS011;66744;49.716;17.158;2023-07-02T05:17:03;12.55;;;6.82;;
77586;SDS011;66744;49.716;17.158;2023-07-02T05:20:17;8.02;;;6.95;;
77586;SDS011;66744;49.716;17.158;2023-07-02T05:23:24;9.15;;;6.97;;
77586;SDS011;66744;49.716;17.158;2023-07-02T05:26:33;8.10;;;6.57;;
77586;SDS011;66744;49.716;17.158;2023-07-02T05:29:46;11.65;;;7.53;;
77586;SDS011;66744;49.716;17.158;2023-07-02T05:32:52;7.75;;;6.50;;
77586;SDS011;66744;49.716;17.158;2023-07-02T05:36:04;11.32;;;7.55;;
77586;SDS011;66744;49.716;17.158;2023-07-02T05:39:16;10.80;;;7.40;;
77586;SDS011;66744;49.716;17.158;2023-07-02T05:42:22;10.00;;;7.45;;
77586;SDS011;66744;49.716;17.158;2023-07-02T05:45:37;11.38;;;7.93;;
77586;SDS011;66744;49.716;17.158;2023-07-02T05:48:44;9.65;;;7.55;;
77586;SDS011;66744;49.716;17.158;2023-07-02T05:52:04;9.55;;;7.15;;
77586;SDS011;66744;49.716;17.158;2023-07-02T05:55:33;9.73;;;6.30;;
77586;SDS011;66744;49.716;17.158;2023-07-02T05:58:58;8.73;;;6.68;;
77586;SDS011;66744;49.716;17.158;2023-07-02T06:02:19;7.85;;;5.60;;
77586;SDS011;66744;49.716;17.158;2023-07-02T06:05:34;7.18;;;5.85;;
77586;SDS011;66744;49.716;17.158;2023-07-02T06:08:38;6.72;;;5.47;;
77586;SDS011;66744;49.716;17.158;2023-07-02T06:11:53;8.15;;;4.75;;
77586;SDS011;66744;49.716;17.158;2023-07-02T06:15:03;4.85;;;3.70;;
77586;SDS011;66744;49.716;17.158;2023-07-02T06:18:14;4.95;;;3.78;;
77586;SDS011;66744;49.716;17.158;2023-07-02T06:21:33;4.07;;;3.17;;
77586;SDS011;66744;49.716;17.158;2023-07-02T06:24:45;4.20;;;3.05;;
77586;SDS011;66744;49.716;17.158;2023-07-02T06:31:54;4.53;;;3.17;;
77586;SDS011;66744;49.716;17.158;2023-07-02T06:35:04;4.65;;;3.15;;
77586;SDS011;66744;49.716;17.158;2023-07-02T06:38:17;3.55;;;3.00;;
77586;SDS011;66744;49.716;17.158;2023-07-02T06:41:28;5.18;;;3.47;;
77586;SDS011;66744;49.716;17.158;2023-07-02T06:44:32;5.38;;;3.45;;
77586;SDS011;66744;49.716;17.158;2023-07-02T06:47:34;3.10;;;2.78;;
77586;SDS011;66744;49.716;17.158;2023-07-02T06:50:47;3.35;;;3.00;;
77586;SDS011;66744;49.716;17.158;2023-07-02T06:53:58;4.07;;;2.65;;
77586;SDS011;66744;49.716;17.158;2023-07-02T06:57:06;4.78;;;2.75;;
77586;SDS011;66744;49.716;17.158;2023-07-02T07:00:13;4.53;;;3.47;;
77586;SDS011;66744;49.716;17.158;2023-07-02T07:03:28;3.25;;;2.10;;
77586;SDS011;66744;49.716;17.158;2023-07-02T07:06:43;1.83;;;1.30;;
77586;SDS011;66744;49.716;17.158;2023-07-02T07:09:55;2.33;;;1.13;;
77586;SDS011;66744;49.716;17.158;2023-07-02T07:13:02;1.10;;;1.00;;
77586;SDS011;66744;49.716;17.158;2023-07-02T07:16:05;1.65;;;0.77;;
77586;SDS011;66744;49.716;17.158;2023-07-02T07:19:12;1.13;;;0.93;;
77586;SDS011;66744;49.716;17.158;2023-07-02T07:22:26;1.75;;;0.95;;
77586;SDS011;66744;49.716;17.158;2023-07-02T07:26:00;1.27;;;1.08;;
77586;SDS011;66744;49.716;17.158;2023-07-02T07:29:51;1.30;;;1.17;;
77586;SDS011;66744;49.716;17.158;2023-07-02T07:33:26;0.90;;;0.85;;
77586;SDS011;66744;49.716;17.158;2023-07-02T07:36:30;1.85;;;0.80;;
77586;SDS011;66744;49.716;17.158;2023-07-02T07:39:36;1.10;;;0.80;;
77586;SDS011;66744;49.716;17.158;2023-07-02T07:46:36;1.60;;;1.08;;
77586;SDS011;66744;49.716;17.158;2023-07-02T07:49:54;1.23;;;0.80;;
77586;SDS011;66744;49.716;17.158;2023-07-02T07:53:11;1.45;;;1.30;;
77586;SDS011;66744;49.716;17.158;2023-07-02T07:56:13;1.85;;;1.23;;
77586;SDS011;66744;49.716;17.158;2023-07-02T07:59:16;3.35;;;1.10;;
77586;SDS011;66744;49.716;17.158;2023-07-02T08:02:18;1.85;;;1.38;;
77586;SDS011;66744;49.716;17.158;2023-07-02T08:05:19;1.85;;;0.85;;
77586;SDS011;66744;49.716;17.158;2023-07-02T08:08:24;1.02;;;0.88;;
77586;SDS011;66744;49.716;17.158;2023-07-02T08:11:26;3.58;;;1.40;;
77586;SDS011;66744;49.716;17.158;2023-07-02T08:14:30;1.40;;;0.93;;
77586;SDS011;66744;49.716;17.158;2023-07-02T08:17:32;2.58;;;0.90;;
77586;SDS011;66744;49.716;17.158;2023-07-02T08:20:44;1.35;;;1.02;;
77586;SDS011;66744;49.716;17.158;2023-07-02T08:23:45;1.05;;;0.82;;
77586;SDS011;66744;49.716;17.158;2023-07-02T08:26:47;1.85;;;0.85;;
77586;SDS011;66744;49.716;17.158;2023-07-02T08:29:50;2.38;;;1.30;;
77586;SDS011;66744;49.716;17.158;2023-07-02T08:32:51;2.05;;;1.35;;
77586;SDS011;66744;49.716;17.158;2023-07-02T08:35:55;1.55;;;1.20;;
77586;SDS011;66744;49.716;17.158;2023-07-02T08:38:57;2.30;;;1.08;;
77586;SDS011;66744;49.716;17.158;2023-07-02T08:41:58;2.10;;;1.27;;
77586;SDS011;66744;49.716;17.158;2023-07-02T08:44:59;1.20;;;1.00;;
77586;SDS011;66744;49.716;17.158;2023-07-02T08:48:02;1.40;;;1.00;;
77586;SDS011;66744;49.716;17.158;2023-07-02T08:51:04;1.80;;;1.27;;
77586;SDS011;66744;49.716;17.158;2023-07-02T08:54:05;1.50;;;1.10;;
77586;SDS011;66744;49.716;17.158;2023-07-02T08:57:07;1.30;;;1.20;;
77586;SDS011;66744;49.716;17.158;2023-07-02T09:00:10;2.47;;;1.20;;
77586;SDS011;66744;49.716;17.158;2023-07-02T09:03:15;2.17;;;1.25;;
77586;SDS011;66744;49.716;17.158;2023-07-02T09:06:17;1.90;;;1.35;;
77586;SDS011;66744;49.716;17.158;2023-07-02T09:09:19;1.58;;;1.15;;
77586;SDS011;66744;49.716;17.158;2023-07-02T09:15:29;2.05;;;1.45;;
77586;SDS011;66744;49.716;17.158;2023-07-02T09:18:36;1.98;;;1.60;;
77586;SDS011;66744;49.716;17.158;2023-07-02T09:21:45;1.30;;;1.13;;
77586;SDS011;66744;49.716;17.158;2023-07-02T09:24:55;2.03;;;1.20;;
77586;SDS011;66744;49.716;17.158;2023-07-02T09:28:00;1.20;;;1.10;;
77586;SDS011;66744;49.716;17.158;2023-07-02T09:31:05;1.35;;;1.17;;
77586;SDS011;66744;49.716;17.158;2023-07-02T09:34:28;1.92;;;1.23;;
77586;SDS011;66744;49.716;17.158;2023-07-02T09:37:34;1.58;;;1.42;;
77586;SDS011;66744;49.716;17.158;2023-07-02T09:40:44;2.00;;;1.10;;
77586;SDS011;66744;49.716;17.158;2023-07-02T09:43:48;1.50;;;1.17;;
77586;SDS011;66744;49.716;17.158;2023-07-02T09:46:56;1.42;;;1.23;;
77586;SDS011;66744;49.716;17.158;2023-07-02T09:50:06;2.63;;;1.52;;
77586;SDS011;66744;49.716;17.158;2023-07-02T09:53:09;1.50;;;1.40;;
77586;SDS011;66744;49.716;17.158;2023-07-02T09:56:11;2.17;;;1.10;;
77586;SDS011;66744;49.716;17.158;2023-07-02T09:59:15;2.20;;;1.55;;
77586;SDS011;66744;49.716;17.158;2023-07-02T10:02:18;1.58;;;1.45;;
77586;SDS011;66744;49.716;17.158;2023-07-02T10:05:30;1.42;;;1.20;;
77586;SDS011;66744;49.716;17.158;2023-07-02T10:08:33;1.20;;;1.10;;
77586;SDS011;66744;49.716;17.158;2023-07-02T10:11:34;1.45;;;1.17;;
77586;SDS011;66744;49.716;17.158;2023-07-02T10:14:42;2.00;;;1.45;;
77586;SDS011;66744;49.716;17.158;2023-07-02T10:17:54;2.15;;;1.45;;
77586;SDS011;66744;49.716;17.158;2023-07-02T10:21:17;1.35;;;1.10;;
77586;SDS011;66744;49.716;17.158;2023-07-02T10:24:19;1.15;;;1.05;;
77586;SDS011;66744;49.716;17.158;2023-07-02T10:27:36;2.22;;;1.40;;
77586;SDS011;66744;49.716;17.158;2023-07-02T10:30:38;1.33;;;1.00;;
77586;SDS011;66744;49.716;17.158;2023-07-02T10:33:43;1.88;;;1.08;;
77586;SDS011;66744;49.716;17.158;2023-07-02T10:36:47;1.25;;;0.95;;
77586;SDS011;66744;49.716;17.158;2023-07-02T10:39:57;1.63;;;1.15;;
77586;SDS011;66744;49.716;17.158;2023-07-02T10:43:05;1.58;;;1.02;;
77586;SDS011;66744;49.716;17.158;2023-07-02T10:46:19;3.30;;;1.40;;
77586;SDS011;66744;49.716;17.158;2023-07-02T10:49:29;1.35;;;1.10;;
77586;SDS011;66744;49.716;17.158;2023-07-02T10:52:37;2.15;;;1.13;;
77586;SDS011;66744;49.716;17.158;2023-07-02T10:55:42;1.33;;;1.02;;
77586;SDS011;66744;49.716;17.158;2023-07-02T10:58:45;1.27;;;0.93;;
77586;SDS011;66744;49.716;17.158;2023-07-02T11:01:50;2.13;;;1.30;;
77586;SDS011;66744;49.716;17.158;2023-07-02T11:04:55;1.88;;;1.52;;
77586;SDS011;66744;49.716;17.158;2023-07-02T11:08:05;2.08;;;1.30;;
77586;SDS011;66744;49.716;17.158;2023-07-02T11:11:11;2.45;;;1.33;;
77586;SDS011;66744;49.716;17.158;2023-07-02T11:14:13;1.83;;;1.65;;
77586;SDS011;66744;49.716;17.158;2023-07-02T11:17:16;1.52;;;1.02;;
77586;SDS011;66744;49.716;17.158;2023-07-02T11:20:25;2.38;;;1.30;;
77586;SDS011;66744;49.716;17.158;2023-07-02T11:23:37;1.80;;;1.55;;
77586;SDS011;66744;49.716;17.158;2023-07-02T11:26:42;1.88;;;1.63;;
77586;SDS011;66744;49.716;17.158;2023-07-02T11:29:44;4.38;;;1.70;;
77586;SDS011;66744;49.716;17.158;2023-07-02T11:32:52;2.25;;;1.73;;
77586;SDS011;66744;49.716;17.158;2023-07-02T11:35:55;2.42;;;1.80;;
77586;SDS011;66744;49.716;17.158;2023-07-02T11:38:56;2.97;;;1.95;;
77586;SDS011;66744;49.716;17.158;2023-07-02T11:41:58;2.13;;;1.88;;
77586;SDS011;66744;49.716;17.158;2023-07-02T11:44:59;2.10;;;1.90;;
77586;SDS011;66744;49.716;17.158;2023-07-02T11:48:05;1.92;;;1.63;;
77586;SDS011;66744;49.716;17.158;2023-07-02T11:51:07;1.60;;;1.40;;
77586;SDS011;66744;49.716;17.158;2023-07-02T11:54:08;3.33;;;1.98;;
77586;SDS011;66744;49.716;17.158;2023-07-02T11:57:10;3.25;;;1.92;;
77586;SDS011;66744;49.716;17.158;2023-07-02T12:00:11;4.13;;;2.03;;
77586;SDS011;66744;49.716;17.158;2023-07-02T12:03:16;1.67;;;1.58;;
77586;SDS011;66744;49.716;17.158;2023-07-02T12:06:28;1.90;;;1.60;;
77586;SDS011;66744;49.716;17.158;2023-07-02T12:09:35;2.28;;;2.08;;
77586;SDS011;66744;49.716;17.158;2023-07-02T12:12:39;2.13;;;1.75;;
77586;SDS011;66744;49.716;17.158;2023-07-02T12:15:40;4.35;;;2.10;;
77586;SDS011;66744;49.716;17.158;2023-07-02T12:18:45;1.98;;;1.73;;
77586;SDS011;66744;49.716;17.158;2023-07-02T12:21:46;2.30;;;2.03;;
77586;SDS011;66744;49.716;17.158;2023-07-02T12:24:48;1.77;;;1.55;;
77586;SDS011;66744;49.716;17.158;2023-07-02T12:27:52;3.30;;;1.77;;
77586;SDS011;66744;49.716;17.158;2023-07-02T12:30:56;4.13;;;1.88;;
77586;SDS011;66744;49.716;17.158;2023-07-02T12:33:59;2.22;;;2.03;;
77586;SDS011;66744;49.716;17.158;2023-07-02T12:37:00;2.85;;;2.00;;
77586;SDS011;66744;49.716;17.158;2023-07-02T12:40:06;3.33;;;1.50;;
77586;SDS011;66744;49.716;17.158;2023-07-02T12:43:22;1.60;;;1.25;;
77586;SDS011;66744;49.716;17.158;2023-07-02T12:46:26;1.60;;;1.10;;
77586;SDS011;66744;49.716;17.158;2023-07-02T12:49:27;2.05;;;1.70;;
77586;SDS011;66744;49.716;17.158;2023-07-02T12:52:37;2.25;;;1.90;;
77586;SDS011;66744;49.716;17.158;2023-07-02T12:55:39;2.17;;;1.63;;
77586;SDS011;66744;49.716;17.158;2023-07-02T12:58:40;2.92;;;1.75;;
77586;SDS011;66744;49.716;17.158;2023-07-02T13:01:44;1.92;;;1.33;;
77586;SDS011;66744;49.716;17.158;2023-07-02T13:04:58;5.47;;;1.60;;
77586;SDS011;66744;49.716;17.158;2023-07-02T13:08:07;3.78;;;1.85;;
77586;SDS011;66744;49.716;17.158;2023-07-02T13:11:08;2.45;;;1.52;;
77586;SDS011;66744;49.716;17.158;2023-07-02T13:14:10;2.38;;;1.55;;
77586;SDS011;66744;49.716;17.158;2023-07-02T13:17:11;3.22;;;1.90;;
77586;SDS011;66744;49.716;17.158;2023-07-02T13:20:20;1.90;;;1.77;;
77586;SDS011;66744;49.716;17.158;2023-07-02T13:23:22;4.68;;;1.88;;
77586;SDS011;66744;49.716;17.158;2023-07-02T13:26:23;1.65;;;1.40;;
77586;SDS011;66744;49.716;17.158;2023-07-02T13:29:33;2.05;;;1.83;;
77586;SDS011;66744;49.716;17.158;2023-07-02T13:32:45;2.00;;;1.77;;
77586;SDS011;66744;49.716;17.158;2023-07-02T13:35:47;2.47;;;1.95;;
77586;SDS011;66744;49.716;17.158;2023-07-02T13:38:50;2.72;;;1.95;;
77586;SDS011;66744;49.716;17.158;2023-07-02T13:41:51;2.10;;;1.67;;
77586;SDS011;66744;49.716;17.158;2023-07-02T13:44:53;2.83;;;1.92;;
77586;SDS011;66744;49.716;17.158;2023-07-02T13:47:57;1.75;;;1.50;;
77586;SDS011;66744;49.716;17.158;2023-07-02T13:50:58;2.65;;;1.63;;
77586;SDS011;66744;49.716;17.158;2023-07-02T13:54:00;1.50;;;1.30;;
77586;SDS011;66744;49.716;17.158;2023-07-02T13:57:02;4.07;;;1.80;;
77586;SDS011;66744;49.716;17.158;2023-07-02T14:00:06;2.33;;;1.83;;
77586;SDS011;66744;49.716;17.158;2023-07-02T14:03:10;1.52;;;1.42;;
77586;SDS011;66744;49.716;17.158;2023-07-02T14:06:12;2.10;;;1.60;;
77586;SDS011;66744;49.716;17.158;2023-07-02T14:09:16;2.92;;;1.92;;
77586;SDS011;66744;49.716;17.158;2023-07-02T14:12:22;2.28;;;1.60;;
77586;SDS011;66744;49.716;17.158;2023-07-02T14:15:24;2.22;;;1.60;;
77586;SDS011;66744;49.716;17.158;2023-07-02T14:18:33;2.00;;;1.40;;
77586;SDS011;66744;49.716;17.158;2023-07-02T14:21:56;1.92;;;1.40;;
77586;SDS011;66744;49.716;17.158;2023-07-02T14:25:00;1.73;;;1.58;;
77586;SDS011;66744;49.716;17.158;2023-07-02T14:28:04;2.08;;;1.88;;
77586;SDS011;66744;49.716;17.158;2023-07-02T14:31:13;1.70;;;1.55;;
77586;SDS011;66744;49.716;17.158;2023-07-02T14:34:14;1.63;;;1.50;;
77586;SDS011;66744;49.716;17.158;2023-07-02T14:37:15;2.25;;;1.65;;
77586;SDS011;66744;49.716;17.158;2023-07-02T14:43:45;1.48;;;1.38;;
77586;SDS011;66744;49.716;17.158;2023-07-02T14:46:48;4.10;;;1.60;;
77586;SDS011;66744;49.716;17.158;2023-07-02T14:49:54;3.38;;;1.73;;
77586;SDS011;66744;49.716;17.158;2023-07-02T14:52:56;2.03;;;1.80;;
77586;SDS011;66744;49.716;17.158;2023-07-02T14:56:11;2.38;;;1.65;;
77586;SDS011;66744;49.716;17.158;2023-07-02T14:59:22;3.20;;;1.67;;
77586;SDS011;66744;49.716;17.158;2023-07-02T15:02:29;2.20;;;1.60;;
77586;SDS011;66744;49.716;17.158;2023-07-02T15:05:42;2.38;;;1.50;;
77586;SDS011;66744;49.716;17.158;2023-07-02T15:08:44;2.78;;;1.58;;
77586;SDS011;66744;49.716;17.158;2023-07-02T15:11:49;1.48;;;1.15;;
77586;SDS011;66744;49.716;17.158;2023-07-02T15:14:51;1.85;;;1.60;;
77586;SDS011;66744;49.716;17.158;2023-07-02T15:17:57;1.70;;;1.40;;
77586;SDS011;66744;49.716;17.158;2023-07-02T15:21:01;1.92;;;1.73;;
77586;SDS011;66744;49.716;17.158;2023-07-02T15:24:12;2.17;;;1.80;;
77586;SDS011;66744;49.716;17.158;2023-07-02T15:27:16;3.80;;;1.73;;
77586;SDS011;66744;49.716;17.158;2023-07-02T15:30:18;3.15;;;1.73;;
77586;SDS011;66744;49.716;17.158;2023-07-02T15:33:26;1.70;;;1.40;;
77586;SDS011;66744;49.716;17.158;2023-07-02T15:36:36;3.13;;;1.50;;
77586;SDS011;66744;49.716;17.158;2023-07-02T15:40:00;2.50;;;1.45;;
77586;SDS011;66744;49.716;17.158;2023-07-02T15:43:11;2.03;;;1.60;;
77586;SDS011;66744;49.716;17.158;2023-07-02T15:46:14;2.92;;;1.70;;
77586;SDS011;66744;49.716;17.158;2023-07-02T15:49:21;2.55;;;1.40;;
77586;SDS011;66744;49.716;17.158;2023-07-02T15:52:26;2.38;;;1.73;;
77586;SDS011;66744;49.716;17.158;2023-07-02T15:55:33;2.50;;;1.55;;
77586;SDS011;66744;49.716;17.158;2023-07-02T15:58:40;2.70;;;1.95;;
77586;SDS011;66744;49.716;17.158;2023-07-02T16:01:45;3.30;;;1.88;;
77586;SDS011;66744;49.716;17.158;2023-07-02T16:04:52;3.20;;;1.85;;
77586;SDS011;66744;49.716;17.158;2023-07-02T16:08:01;1.88;;;1.60;;
77586;SDS011;66744;49.716;17.158;2023-07-02T16:11:06;2.60;;;1.70;;
77586;SDS011;66744;49.716;17.158;2023-07-02T16:14:12;2.92;;;1.92;;
77586;SDS011;66744;49.716;17.158;2023-07-02T16:17:28;5.45;;;2.40;;
77586;SDS011;66744;49.716;17.158;2023-07-02T16:24:03;3.00;;;2.20;;
77586;SDS011;66744;49.716;17.158;2023-07-02T16:27:45;2.55;;;1.80;;
77586;SDS011;66744;49.716;17.158;2023-07-02T16:31:27;2.47;;;2.00;;
77586;SDS011;66744;49.716;17.158;2023-07-02T16:38:39;2.95;;;1.70;;
77586;SDS011;66744;49.716;17.158;2023-07-02T16:41:44;3.53;;;2.78;;
77586;SDS011;66744;49.716;17.158;2023-07-02T16:44:51;3.25;;;1.92;;
77586;SDS011;66744;49.716;17.158;2023-07-02T16:47:52;2.83;;;1.80;;
77586;SDS011;66744;49.716;17.158;2023-07-02T16:51:04;3.38;;;2.35;;
77586;SDS011;66744;49.716;17.158;2023-07-02T16:54:10;6.55;;;4.30;;
77586;SDS011;66744;49.716;17.158;2023-07-02T16:57:18;3.53;;;2.70;;
77586;SDS011;66744;49.716;17.158;2023-07-02T17:00:25;5.03;;;3.17;;
77586;SDS011;66744;49.716;17.158;2023-07-02T17:03:26;5.13;;;3.38;;
77586;SDS011;66744;49.716;17.158;2023-07-02T17:11:15;3.63;;;2.55;;
77586;SDS011;66744;49.716;17.158;2023-07-02T17:15:27;4.07;;;2.97;;
77586;SDS011;66744;49.716;17.158;2023-07-02T17:18:19;3.55;;;2.58;;
77586;SDS011;66744;49.716;17.158;2023-07-02T17:21:23;3.90;;;2.63;;
77586;SDS011;66744;49.716;17.158;2023-07-02T17:24:33;4.30;;;3.10;;
77586;SDS011;66744;49.716;17.158;2023-07-02T17:27:39;3.70;;;2.97;;
77586;SDS011;66744;49.716;17.158;2023-07-02T17:30:50;4.38;;;2.22;;
77586;SDS011;66744;49.716;17.158;2023-07-02T17:33:53;4.28;;;2.88;;
77586;SDS011;66744;49.716;17.158;2023-07-02T17:36:55;4.40;;;3.95;;
77586;SDS011;66744;49.716;17.158;2023-07-02T17:39:59;8.50;;;3.60;;
77586;SDS011;66744;49.716;17.158;2023-07-02T17:43:06;4.65;;;2.42;;
77586;SDS011;66744;49.716;17.158;2023-07-02T17:46:14;4.00;;;2.60;;
77586;SDS011;66744;49.716;17.158;2023-07-02T17:49:16;3.47;;;2.60;;
77586;SDS011;66744;49.716;17.158;2023-07-02T17:52:20;6.40;;;3.30;;
77586;SDS011;66744;49.716;17.158;2023-07-02T17:55:22;4.43;;;2.95;;
77586;SDS011;66744;49.716;17.158;2023-07-02T17:58:31;4.32;;;3.20;;
77586;SDS011;66744;49.716;17.158;2023-07-02T18:01:41;5.10;;;3.38;;
77586;SDS011;66744;49.716;17.158;2023-07-02T18:04:46;3.83;;;3.03;;
77586;SDS011;66744;49.716;17.158;2023-07-02T18:07:49;5.55;;;2.60;;
77586;SDS011;66744;49.716;17.158;2023-07-02T18:10:53;5.35;;;2.75;;
77586;SDS011;66744;49.716;17.158;2023-07-02T18:14:08;5.43;;;3.30;;
77586;SDS011;66744;49.716;17.158;2023-07-02T18:17:20;6.43;;;3.10;;
77586;SDS011;66744;49.716;17.158;2023-07-02T18:20:21;4.13;;;3.25;;
77586;SDS011;66744;49.716;17.158;2023-07-02T18:23:36;4.88;;;2.47;;
77586;SDS011;66744;49.716;17.158;2023-07-02T18:26:43;5.20;;;3.00;;
77586;SDS011;66744;49.716;17.158;2023-07-02T18:30:26;4.18;;;2.88;;
77586;SDS011;66744;49.716;17.158;2023-07-02T19:21:24;5.47;;;3.65;;
77586;SDS011;66744;49.716;17.158;2023-07-02T19:30:38;5.28;;;3.80;;
77586;SDS011;66744;49.716;17.158;2023-07-02T19:34:46;4.70;;;3.00;;
77586;SDS011;66744;49.716;17.158;2023-07-02T20:52:04;6.20;;;2.95;;
77586;SDS011;66744;49.716;17.158;2023-07-02T21:00:14;5.93;;;3.15;;
77586;SDS011;66744;49.716;17.158;2023-07-02T21:04:09;4.95;;;3.10;;
77586;SDS011;66744;49.716;17.158;2023-07-02T21:11:55;4.50;;;3.42;;
77586;SDS011;66744;49.716;17.158;2023-07-02T21:15:39;9.10;;;3.53;;
77586;SDS011;66744;49.716;17.158;2023-07-02T21:39:54;9.13;;;4.07;;
77586;SDS011;66744;49.716;17.158;2023-07-02T21:47:43;5.93;;;4.28;;